Time;durP1;ratioP1;P1;durP2;ratioP2;P2;SDS_P1;SDS_P2;PMS_P1;PMS_P2;Temp;Humidity;BMP_temperature;BMP_pressure;BME280_temperature;BME280_humidity;BME280_pressure;Samples;Min_cycle;Max_cycle;Signal;HPM_P1;HPM_P2
2022/01/24 00:01:59;;;;;;;10.50;7.13;;;;;;;2.72;100.00;100235.16;10442360;28;20049;-77
2022/01/24 00:06:59;;;;;;;9.50;8.02;;;;;;;2.76;100.00;100244.31;10455599;28;20064;-77
2022/01/24 00:12:15;;;;;;;12.70;10.40;;;;;;;2.76;100.00;100239.00;10401894;28;20053;-78
2022/01/24 00:17:31;;;;;;;10.60;8.73;;;;;;;2.87;100.00;100232.94;10440147;28;20049;-76
2022/01/24 00:27:53;;;;;;;14.95;9.60;;;;;;;2.62;100.00;100224.28;10446314;28;20110;-77
2022/01/24 00:32:55;;;;;;;10.32;8.77;;;;;;;2.63;100.00;100224.06;10452905;28;20114;-77
2022/01/24 00:38:01;;;;;;;10.68;8.25;;;;;;;2.67;100.00;100224.44;10416694;28;20037;-79
2022/01/24 00:43:05;;;;;;;10.05;7.88;;;;;;;2.51;100.00;100223.19;10483403;28;20075;-78
2022/01/24 00:48:27;;;;;;;9.25;7.75;;;;;;;2.56;100.00;100229.47;10459471;28;20461;-77
2022/01/24 00:58:45;;;;;;;8.70;7.22;;;;;;;2.59;100.00;100222.09;10452507;28;20055;-76
2022/01/24 01:03:46;;;;;;;9.35;6.93;;;;;;;2.56;100.00;100220.69;10460550;28;20075;-77
2022/01/24 01:19:27;;;;;;;8.73;5.93;;;;;;;2.65;100.00;100218.53;10448513;28;20064;-77
2022/01/24 01:24:30;;;;;;;8.73;5.30;;;;;;;2.54;100.00;100206.84;10437233;28;20052;-77
2022/01/24 01:29:45;;;;;;;6.63;5.10;;;;;;;2.50;100.00;100205.69;10448357;28;20628;-80
2022/01/24 01:35:13;;;;;;;3.97;3.58;;;;;;;2.55;100.00;100196.00;10469215;28;20060;-78
2022/01/24 01:56:04;;;;;;;4.93;3.90;;;;;;;2.63;100.00;100197.56;10458773;28;20134;-77
2022/01/24 02:01:07;;;;;;;4.93;3.83;;;;;;;2.50;100.00;100195.09;10473080;28;20064;-78
2022/01/24 02:06:11;;;;;;;5.53;4.43;;;;;;;2.45;100.00;100193.09;10448330;28;20068;-77
2022/01/24 02:11:33;;;;;;;5.45;4.03;;;;;;;2.42;100.00;100192.72;10413128;28;20127;-77
2022/01/24 02:16:51;;;;;;;4.72;3.72;;;;;;;2.37;100.00;100187.28;10481924;28;20488;-76
2022/01/24 02:27:01;;;;;;;5.65;4.07;;;;;;;2.40;100.00;100179.72;10467858;28;20117;-77
2022/01/24 02:32:04;;;;;;;7.57;6.68;;;;;;;2.40;100.00;100170.94;10448358;28;20139;-77
2022/01/24 02:37:07;;;;;;;5.18;4.40;;;;;;;2.39;100.00;100174.63;10432992;28;20056;-79
2022/01/24 02:52:46;;;;;;;7.78;6.53;;;;;;;2.45;100.00;100171.06;10473363;28;20824;-76
2022/01/24 02:57:48;;;;;;;9.05;6.85;;;;;;;2.49;100.00;100166.97;10468763;28;20148;-79
2022/01/24 03:02:49;;;;;;;7.85;6.47;;;;;;;2.50;100.00;100165.94;10459357;28;20094;-76
2022/01/24 03:07:51;;;;;;;10.38;7.45;;;;;;;2.51;100.00;100178.94;10466427;28;20049;-79
2022/01/24 03:18:13;;;;;;;12.02;7.50;;;;;;;2.43;100.00;100154.59;10489565;28;19925;-76
2022/01/24 03:23:20;;;;;;;10.63;7.95;;;;;;;2.42;100.00;100150.34;10488191;28;20052;-78
2022/01/24 03:28:21;;;;;;;10.98;8.00;;;;;;;2.46;100.00;100148.84;10478536;28;20103;-76
2022/01/24 03:33:22;;;;;;;8.63;6.95;;;;;;;2.43;100.00;100139.50;10472433;28;20559;-76
2022/01/24 03:38:27;;;;;;;10.50;8.68;;;;;;;2.30;100.00;100131.72;10461460;28;20080;-76
2022/01/24 03:43:27;;;;;;;10.32;8.80;;;;;;;2.39;100.00;100125.09;10457102;28;20366;-78
2022/01/24 03:53:57;;;;;;;10.77;8.80;;;;;;;2.38;100.00;100127.94;10470629;28;20056;-77
2022/01/24 03:58:58;;;;;;;11.52;8.77;;;;;;;2.41;100.00;100127.50;10458974;28;20044;-78
2022/01/24 04:04:00;;;;;;;12.80;9.25;;;;;;;2.34;100.00;100122.28;10454055;28;20419;-77
2022/01/24 04:09:00;;;;;;;11.52;9.27;;;;;;;2.34;100.00;100118.84;10471423;28;20056;-77
2022/01/24 04:14:21;;;;;;;13.38;8.40;;;;;;;2.31;100.00;100120.09;10438901;28;20060;-77
2022/01/24 04:24:32;;;;;;;12.23;8.93;;;;;;;2.38;100.00;100106.75;10481362;28;20048;-81
2022/01/24 04:29:35;;;;;;;10.88;8.30;;;;;;;2.35;100.00;100108.00;10472014;28;20049;-77
2022/01/24 04:34:35;;;;;;;12.40;8.20;;;;;;;2.33;100.00;100114.56;10496714;28;20044;-79
2022/01/24 04:39:36;;;;;;;9.60;8.15;;;;;;;2.30;100.00;100115.84;10478562;28;20049;-78
2022/01/24 04:55:16;;;;;;;8.38;6.88;;;;;;;2.41;100.00;100106.31;10536905;28;20055;-79
2022/01/24 05:00:19;;;;;;;9.85;7.00;;;;;;;2.33;100.00;100112.72;10517363;28;20132;-78
2022/01/24 05:05:27;;;;;;;9.68;6.65;;;;;;;2.28;100.00;100117.88;10489390;28;20072;-76
2022/01/24 05:10:51;;;;;;;10.02;7.68;;;;;;;2.37;100.00;100118.38;10476407;28;20138;-76
2022/01/24 05:21:35;;;;;;;9.00;6.70;;;;;;;2.37;100.00;100113.88;10492168;28;20151;-78
2022/01/24 05:26:35;;;;;;;8.18;6.80;;;;;;;2.45;100.00;100115.44;10498114;28;20077;-77
2022/01/24 05:31:37;;;;;;;9.95;7.63;;;;;;;2.40;100.00;100113.47;10503474;28;20044;-77
2022/01/24 05:36:41;;;;;;;8.13;6.43;;;;;;;2.49;100.00;100124.56;10481162;28;20060;-79
2022/01/24 05:41:42;;;;;;;9.63;7.30;;;;;;;2.43;100.00;100128.91;10494109;28;20048;-80
2022/01/24 05:46:43;;;;;;;9.00;7.72;;;;;;;2.36;100.00;100130.81;10475158;28;20076;-78
2022/01/24 05:51:43;;;;;;;8.65;7.13;;;;;;;2.33;100.00;100128.63;10499553;28;20060;-77
2022/01/24 05:56:45;;;;;;;9.40;7.50;;;;;;;2.29;100.00;100140.72;10475161;28;20511;-78
2022/01/24 06:01:46;;;;;;;8.70;7.35;;;;;;;2.35;100.00;100134.50;10477557;28;20049;-79
2022/01/24 06:06:52;;;;;;;11.70;7.75;;;;;;;2.41;100.00;100138.94;10461330;28;20480;-79
2022/01/24 06:11:55;;;;;;;9.98;7.00;;;;;;;2.41;100.00;100144.22;10479593;28;20064;-77
2022/01/24 06:16:56;;;;;;;9.70;7.60;;;;;;;2.42;100.00;100135.25;10471955;28;20084;-79
2022/01/24 06:21:57;;;;;;;8.55;6.68;;;;;;;2.45;100.00;100126.84;10448838;28;20087;-79
2022/01/24 06:26:57;;;;;;;9.60;6.88;;;;;;;2.53;100.00;100141.63;10508808;28;20369;-77
2022/01/24 06:31:58;;;;;;;8.73;6.68;;;;;;;2.41;100.00;100141.56;10510787;28;20052;-77
2022/01/24 06:36:58;;;;;;;10.73;6.88;;;;;;;2.38;100.00;100152.63;10493646;28;20064;-78
2022/01/24 06:42:14;;;;;;;8.27;6.40;;;;;;;2.46;100.00;100162.09;10506271;28;20116;-78
2022/01/24 06:47:18;;;;;;;9.00;7.07;;;;;;;2.46;100.00;100176.16;10477110;28;20057;-79
2022/01/24 06:52:20;;;;;;;9.25;6.82;;;;;;;2.49;100.00;100182.88;10528442;28;20100;-79
2022/01/24 06:57:20;;;;;;;9.05;6.57;;;;;;;2.53;100.00;100184.03;10513382;28;20051;-78
2022/01/24 07:02:21;;;;;;;9.57;6.85;;;;;;;2.61;100.00;100175.75;10483535;28;20039;-80
2022/01/24 07:07:23;;;;;;;7.97;6.80;;;;;;;2.70;100.00;100178.91;10489478;28;20387;-77
2022/01/24 07:12:25;;;;;;;10.20;6.72;;;;;;;2.60;100.00;100176.00;10478507;28;20052;-77
2022/01/24 07:22:26;;;;;;;8.48;6.35;;;;;;;2.64;100.00;100193.06;10515134;28;20029;-77
2022/01/24 07:27:27;;;;;;;10.82;6.43;;;;;;;2.61;100.00;100199.63;10478271;28;20067;-79
2022/01/24 07:32:30;;;;;;;9.70;5.47;;;;;;;2.71;100.00;100199.91;10493292;28;20048;-77
2022/01/24 07:37:34;;;;;;;6.07;4.32;;;;;;;2.82;100.00;100190.38;10468431;28;20072;-80
2022/01/24 07:42:53;;;;;;;4.45;3.88;;;;;;;2.88;100.00;100188.66;10490197;28;20052;-79
2022/01/24 07:47:54;;;;;;;5.43;4.63;;;;;;;2.82;100.00;100185.88;10505316;28;20048;-79
2022/01/24 07:52:59;;;;;;;5.97;4.30;;;;;;;2.81;100.00;100191.41;10458089;28;20052;-78
2022/01/24 07:58:02;;;;;;;5.80;4.15;;;;;;;2.84;100.00;100199.75;10436398;28;20060;-79
2022/01/24 08:03:03;;;;;;;;;;;;;;;2.88;100.00;100213.34;10455192;28;20075;-78
2022/01/24 08:08:05;;;;;;;5.68;4.10;;;;;;;2.80;100.00;100208.34;10485716;28;19921;-78
2022/01/24 08:13:07;;;;;;;5.20;4.00;;;;;;;2.83;100.00;100213.19;10475887;28;20060;-80
2022/01/24 08:18:25;;;;;;;5.72;3.90;;;;;;;2.89;100.00;100209.66;10492290;28;20108;-80
2022/01/24 08:23:32;;;;;;;4.85;3.03;;;;;;;2.88;100.00;100204.59;10503458;28;20060;-78
2022/01/24 08:28:38;;;;;;;3.05;2.75;;;;;;;2.91;100.00;100199.63;10436328;28;20079;-79
2022/01/24 08:33:41;;;;;;;6.13;3.40;;;;;;;2.90;100.00;100198.00;10468482;28;20556;-78
2022/01/24 08:38:46;;;;;;;4.60;3.20;;;;;;;3.00;100.00;100206.22;10444659;28;20044;-79
2022/01/24 08:43:58;;;;;;;4.55;3.08;;;;;;;2.97;100.00;100198.72;10420933;28;20052;-79
2022/01/24 08:49:42;;;;;;;4.25;3.08;;;;;;;2.96;100.00;100213.03;10454183;28;20063;-79
2022/01/24 08:54:43;;;;;;;3.47;2.70;;;;;;;3.04;100.00;100220.69;10443246;28;20056;-79
2022/01/24 08:59:46;;;;;;;3.97;2.80;;;;;;;2.95;100.00;100216.72;10467446;28;20049;-79
2022/01/24 09:04:47;;;;;;;3.90;3.03;;;;;;;2.98;100.00;100216.25;10474345;28;20045;-79
2022/01/24 09:09:50;;;;;;;4.70;3.22;;;;;;;2.99;100.00;100220.53;10480989;28;20049;-79
2022/01/24 09:14:54;;;;;;;3.63;3.13;;;;;;;3.00;100.00;100218.69;10464947;28;20045;-78
2022/01/24 09:19:55;;;;;;;3.10;2.55;;;;;;;3.08;100.00;100215.72;10476125;28;20051;-79
2022/01/24 09:24:55;;;;;;;5.10;3.10;;;;;;;3.17;100.00;100219.66;10499619;28;20114;-78
2022/01/24 09:29:57;;;;;;;3.20;2.60;;;;;;;3.21;100.00;100220.84;10460112;28;20107;-79
2022/01/24 09:41:28;;;;;;;2.92;2.38;;;;;;;3.25;100.00;100216.69;10495476;28;20040;-77
2022/01/24 09:46:33;;;;;;;3.45;2.78;;;;;;;3.20;100.00;100223.72;10465098;28;20555;-79
2022/01/24 09:51:37;;;;;;;3.85;2.95;;;;;;;3.26;100.00;100220.16;10461376;28;20139;-80
2022/01/24 09:57:11;;;;;;;4.80;2.88;;;;;;;3.25;100.00;100231.81;10483276;28;20048;-78
2022/01/24 10:02:17;;;;;;;3.88;3.17;;;;;;;3.14;100.00;100228.91;10464171;28;20078;-78
2022/01/24 10:07:19;;;;;;;3.67;3.30;;;;;;;3.25;100.00;100229.16;10484505;28;20052;-78
2022/01/24 10:16:24;;;;;;;4.60;3.40;;;;;;;3.41;100.00;100236.47;10472406;28;20041;-78
2022/01/24 10:17:52;;;;;;;5.60;3.33;;;;;;;3.17;100.00;100234.78;10493914;28;20032;-79
2022/01/24 10:23:07;;;;;;;6.35;3.38;;;;;;;3.27;100.00;100233.19;10473598;28;20043;-79
2022/01/24 10:28:10;;;;;;;4.45;3.30;;;;;;;3.28;100.00;100231.34;10528644;28;20044;-80
2022/01/24 10:34:28;;;;;;;6.85;3.67;;;;;;;3.21;100.00;100222.69;10480977;28;20060;-78
2022/01/24 10:44:43;;;;;;;4.97;3.67;;;;;;;3.40;100.00;100209.13;10494170;28;20055;-79
2022/01/24 10:49:46;;;;;;;6.78;4.00;;;;;;;3.47;100.00;100201.03;10517474;28;20032;-79
2022/01/24 10:54:52;;;;;;;5.18;3.80;;;;;;;3.55;100.00;100194.59;10496232;28;20064;-78
2022/01/24 11:00:08;;;;;;;6.45;4.47;;;;;;;3.51;100.00;100186.28;10471553;28;20480;-79
2022/01/24 11:05:09;;;;;;;6.28;4.03;;;;;;;3.43;100.00;100190.06;10436787;28;20578;-79
2022/01/24 11:10:12;;;;;;;5.10;4.13;;;;;;;3.37;100.00;100183.00;10483896;28;20116;-78
2022/01/24 11:15:15;;;;;;;4.57;3.55;;;;;;;3.33;100.00;100176.56;10485060;28;20579;-79
2022/01/24 11:20:17;;;;;;;5.30;3.75;;;;;;;3.42;100.00;100177.03;10496621;28;20049;-80
2022/01/24 11:25:19;;;;;;;4.77;3.97;;;;;;;3.40;100.00;100182.59;10456973;28;20041;-79
2022/01/24 11:30:25;;;;;;;4.63;3.73;;;;;;;3.31;100.00;100178.66;10493998;28;20063;-78
2022/01/24 11:35:54;;;;;;;5.72;3.65;;;;;;;3.45;100.00;100181.06;10483298;28;20104;-79
2022/01/24 11:41:32;;;;;;;5.28;3.72;;;;;;;3.60;100.00;100171.63;10454292;28;20389;-78
2022/01/24 11:46:52;;;;;;;5.13;3.60;;;;;;;3.46;100.00;100162.25;10461182;28;20076;-78
2022/01/24 11:52:12;;;;;;;5.78;3.53;;;;;;;3.53;100.00;100156.84;10457841;28;20348;-77
2022/01/24 11:57:38;;;;;;;4.55;3.30;;;;;;;3.47;100.00;100157.75;10466108;28;20055;-79
2022/01/24 12:02:40;;;;;;;6.65;4.10;;;;;;;3.68;100.00;100151.88;10537484;28;20036;-78
2022/01/24 12:07:45;;;;;;;5.88;3.50;;;;;;;3.58;100.00;100144.50;10524754;28;20040;-78
2022/01/24 12:12:49;;;;;;;4.15;3.30;;;;;;;3.61;100.00;100132.59;10470708;28;20411;-77
2022/01/24 12:17:52;;;;;;;5.22;3.47;;;;;;;3.69;100.00;100133.06;10498358;28;20064;-78
2022/01/24 12:22:53;;;;;;;5.78;3.30;;;;;;;3.66;100.00;100128.22;10492412;28;20052;-81
2022/01/24 12:28:16;;;;;;;6.65;3.70;;;;;;;3.64;100.00;100124.16;10470104;28;20053;-76
2022/01/24 12:33:33;;;;;;;5.55;3.70;;;;;;;3.65;100.00;100125.78;10502577;28;20053;-77
2022/01/24 12:38:43;;;;;;;8.13;3.70;;;;;;;3.72;100.00;100124.63;10501827;28;20056;-77
2022/01/24 12:49:08;;;;;;;4.38;3.50;;;;;;;3.63;100.00;100118.06;10465848;28;20052;-77
2022/01/24 12:54:09;;;;;;;6.35;3.42;;;;;;;3.63;100.00;100115.41;10506848;28;20133;-79
2022/01/24 12:59:10;;;;;;;6.07;3.40;;;;;;;3.67;100.00;100115.75;10480667;28;20148;-77
2022/01/24 13:04:12;;;;;;;5.63;3.83;;;;;;;3.76;100.00;100121.53;10472972;28;20049;-78
2022/01/24 13:09:19;;;;;;;4.88;3.50;;;;;;;3.64;100.00;100111.69;10451178;28;20187;-79
2022/01/24 13:14:38;;;;;;;6.40;3.92;;;;;;;3.64;100.00;100113.56;10468405;28;20218;-78
2022/01/24 13:25:16;;;;;;;4.75;3.50;;;;;;;3.61;100.00;100117.50;10500980;28;20071;-78
2022/01/24 13:30:30;;;;;;;4.28;3.70;;;;;;;3.59;100.00;100116.13;10485998;28;20108;-76
2022/01/24 13:35:38;;;;;;;5.13;3.53;;;;;;;3.59;100.00;100108.16;10498548;28;20069;-77
2022/01/24 13:41:02;;;;;;;8.23;3.58;;;;;;;3.38;100.00;100098.91;10468830;28;20057;-79
2022/01/24 13:46:08;;;;;;;5.68;3.10;;;;;;;3.51;100.00;100105.84;10469504;28;20594;-77
2022/01/24 13:51:09;;;;;;;8.45;4.10;;;;;;;3.51;100.00;100100.53;10432097;28;20044;-78
2022/01/24 13:56:19;;;;;;;6.70;3.47;;;;;;;3.47;100.00;100094.84;10472644;28;20515;-77
2022/01/24 14:01:19;;;;;;;6.35;3.70;;;;;;;3.41;100.00;100103.75;10472136;28;20091;-77
2022/01/24 14:06:20;;;;;;;6.25;3.58;;;;;;;3.39;100.00;100114.63;10459431;28;20543;-77
2022/01/24 14:11:22;;;;;;;6.60;3.45;;;;;;;3.38;100.00;100112.16;10449515;28;20088;-77
2022/01/24 14:16:45;;;;;;;6.53;3.75;;;;;;;3.38;100.00;100101.56;10481438;28;20115;-78
2022/01/24 14:22:05;;;;;;;5.80;4.05;;;;;;;3.43;100.00;100093.72;10452532;28;20080;-78
2022/01/24 14:27:06;;;;;;;7.38;3.75;;;;;;;3.45;100.00;100090.81;10428483;28;20072;-80
2022/01/24 14:32:13;;;;;;;8.43;3.72;;;;;;;3.30;100.00;100105.38;10397578;28;20960;-79
2022/01/24 14:37:16;;;;;;;7.30;4.47;;;;;;;3.25;100.00;100097.28;10413640;28;20106;-78
2022/01/24 14:42:33;;;;;;;4.95;3.65;;;;;;;3.32;100.00;100105.16;10412529;28;20133;-77
2022/01/24 14:47:35;;;;;;;7.50;3.45;;;;;;;3.13;100.00;100107.09;10424628;28;20132;-85
2022/01/24 14:52:41;;;;;;;9.07;4.07;;;;;;;3.09;100.00;100111.22;10400981;28;20615;-77
2022/01/24 14:57:42;;;;;;;5.43;3.78;;;;;;;3.21;100.00;100114.72;10450756;28;20098;-77
2022/01/24 15:02:44;;;;;;;8.13;4.85;;;;;;;3.22;100.00;100113.69;10457233;28;20602;-78
2022/01/24 15:07:45;;;;;;;8.23;4.35;;;;;;;3.41;100.00;100125.81;10501546;28;20051;-78
2022/01/24 15:12:52;;;;;;;5.80;4.30;;;;;;;3.35;100.00;100117.94;10504647;28;20057;-79
2022/01/24 15:28:31;;;;;;;7.22;4.60;;;;;;;3.17;100.00;100121.50;10502616;28;20052;-78
2022/01/24 15:33:32;;;;;;;7.55;5.05;;;;;;;3.18;100.00;100130.25;10482209;28;20044;-77
2022/01/24 15:38:33;;;;;;;9.43;5.75;;;;;;;3.14;100.00;100129.94;10483094;28;20095;-77
2022/01/24 15:43:57;;;;;;;7.70;5.00;;;;;;;2.96;100.00;100120.22;10486420;28;20144;-78
2022/01/24 15:48:59;;;;;;;6.20;4.20;;;;;;;2.95;100.00;100121.25;10480691;28;20059;-77
2022/01/24 15:54:02;;;;;;;7.63;5.78;;;;;;;2.99;100.00;100122.41;10439235;28;20055;-78
2022/01/24 15:59:06;;;;;;;;;;;;;;;2.94;100.00;100116.16;10462021;28;20052;-76
2022/01/24 16:04:07;;;;;;;7.65;4.75;;;;;;;2.95;100.00;100129.19;10479592;28;19924;-78
2022/01/24 16:09:15;;;;;;;9.80;5.35;;;;;;;2.98;100.00;100125.28;10455761;28;20045;-78
2022/01/24 16:14:22;;;;;;;8.77;5.47;;;;;;;2.85;100.00;100121.00;10493498;28;20146;-80
2022/01/24 16:19:27;;;;;;;7.88;4.68;;;;;;;2.76;100.00;100130.31;10492563;28;20120;-78
2022/01/24 16:29:55;;;;;;;6.20;4.90;;;;;;;2.59;100.00;100138.09;10494522;28;20055;-79
2022/01/24 16:34:58;;;;;;;6.35;4.32;;;;;;;2.65;100.00;100131.06;10506867;28;20067;-78
2022/01/24 16:39:59;;;;;;;9.55;5.68;;;;;;;2.74;100.00;100133.19;10520299;28;20092;-78
2022/01/24 16:45:24;;;;;;;9.75;5.63;;;;;;;2.75;100.00;100137.47;10476057;28;20060;-80
2022/01/24 16:50:21;;;;;;;7.55;5.53;;;;;;;2.74;100.00;100137.66;10487404;28;20356;-77
2022/01/24 16:55:23;;;;;;;9.45;5.43;;;;;;;2.80;100.00;100134.09;10478615;28;20056;-79
2022/01/24 17:00:27;;;;;;;7.63;5.55;;;;;;;2.75;100.00;100134.81;10453433;28;20057;-78
2022/01/24 17:05:31;;;;;;;8.23;4.90;;;;;;;2.66;100.00;100135.34;10522547;28;20067;-79
2022/01/24 17:10:33;;;;;;;11.30;6.53;;;;;;;2.72;100.00;100134.44;10495783;28;20072;-82
2022/01/24 17:15:45;;;;;;;8.68;6.25;;;;;;;2.67;100.00;100129.81;10485561;28;20056;-80
2022/01/24 17:20:47;;;;;;;7.45;5.18;;;;;;;2.60;100.00;100128.28;10490079;28;20041;-78
2022/01/24 17:25:49;;;;;;;9.82;5.97;;;;;;;2.60;100.00;100130.94;10498334;28;20059;-79
2022/01/24 17:30:55;;;;;;;10.90;6.18;;;;;;;2.56;100.00;100126.09;10491432;28;20171;-78
2022/01/24 17:36:04;;;;;;;8.50;5.57;;;;;;;2.54;100.00;100127.31;10475338;28;20119;-78
2022/01/24 17:41:06;;;;;;;9.00;5.70;;;;;;;2.50;100.00;100120.88;10484489;28;20058;-77
2022/01/24 17:46:10;;;;;;;9.00;5.20;;;;;;;2.62;100.00;100128.88;10491700;28;20098;-79
2022/01/24 17:51:22;;;;;;;9.50;5.93;;;;;;;2.55;100.00;100124.44;10475641;28;20068;-79
2022/01/24 17:56:24;;;;;;;9.55;5.90;;;;;;;2.59;100.00;100126.66;10462739;28;20060;-80
2022/01/24 18:01:25;;;;;;;8.93;6.03;;;;;;;2.54;100.00;100122.84;10438815;28;20096;-79
2022/01/24 18:06:29;;;;;;;7.43;5.22;;;;;;;2.56;100.00;100117.31;10476053;28;20058;-79
2022/01/24 18:11:34;;;;;;;10.70;7.20;;;;;;;2.52;100.00;100124.09;10510427;28;20139;-78
2022/01/24 18:16:34;;;;;;;11.93;7.95;;;;;;;2.60;100.00;100125.63;10482609;28;20037;-78
2022/01/24 18:21:37;;;;;;;8.32;5.88;;;;;;;2.58;100.00;100117.09;10500218;28;20056;-79
2022/01/24 18:26:39;;;;;;;10.02;6.40;;;;;;;2.52;100.00;100119.59;10509455;28;20053;-80
2022/01/24 18:31:41;;;;;;;9.43;6.57;;;;;;;2.56;100.00;100126.09;10474280;28;20040;-81
2022/01/24 18:36:44;;;;;;;;;;;;;;;2.54;100.00;100119.38;10507584;28;20052;-81
2022/01/24 18:41:44;;;;;;;10.50;6.10;;;;;;;2.51;100.00;100114.53;10531068;28;19931;-80
2022/01/24 18:46:45;;;;;;;13.73;7.78;;;;;;;2.49;100.00;100109.47;10525032;28;20278;-81
2022/01/24 18:51:49;;;;;;;14.13;8.50;;;;;;;2.52;100.00;100105.56;10547596;28;20040;-78
2022/01/24 18:56:51;;;;;;;9.43;6.78;;;;;;;2.55;100.00;100111.19;10503063;28;20100;-77
2022/01/24 19:01:58;;;;;;;13.88;8.48;;;;;;;2.67;100.00;100124.50;10481501;28;20124;-77
2022/01/24 19:06:59;;;;;;;15.73;9.45;;;;;;;2.67;100.00;100119.22;10480263;28;20957;-78
2022/01/24 19:11:59;;;;;;;12.55;7.70;;;;;;;2.64;100.00;100114.34;10485941;28;20068;-82
2022/01/24 19:17:07;;;;;;;10.93;7.50;;;;;;;2.70;100.00;100107.34;10499942;28;20516;-78
2022/01/24 19:27:29;;;;;;;14.95;8.43;;;;;;;2.61;100.00;100127.25;10497850;28;20119;-81
2022/01/24 19:32:31;;;;;;;9.23;6.65;;;;;;;2.60;100.00;100125.63;10468159;28;20052;-79
2022/01/24 19:37:31;;;;;;;13.13;8.05;;;;;;;2.61;100.00;100129.91;10517175;28;20049;-78
2022/01/24 19:42:32;;;;;;;10.82;6.85;;;;;;;2.60;100.00;100118.50;10497699;28;20076;-80
2022/01/24 19:47:32;;;;;;;13.93;8.38;;;;;;;2.60;100.00;100120.34;10509424;28;20067;-78
2022/01/24 19:52:35;;;;;;;12.13;7.20;;;;;;;2.54;100.00;100112.22;10484211;28;20132;-79
2022/01/24 19:57:44;;;;;;;14.63;8.15;;;;;;;2.64;100.00;100116.19;10449579;28;20053;-78
2022/01/24 20:02:45;;;;;;;13.45;7.05;;;;;;;2.61;100.00;100122.75;10466493;28;20068;-78
2022/01/24 20:07:49;;;;;;;12.75;7.90;;;;;;;2.59;100.00;100119.53;10456048;28;20072;-78
2022/01/24 20:12:49;;;;;;;13.88;7.63;;;;;;;2.70;100.00;100121.41;10476592;28;20439;-78
2022/01/24 20:17:50;;;;;;;11.05;7.75;;;;;;;2.58;100.00;100114.47;10481657;28;20056;-78
2022/01/24 20:22:52;;;;;;;14.23;8.38;;;;;;;2.44;100.00;100116.47;10442538;23;20487;-80
2022/01/24 20:27:52;;;;;;;14.02;8.95;;;;;;;2.22;100.00;100110.84;10390924;28;20046;-80
2022/01/24 20:32:55;;;;;;;13.20;8.33;;;;;;;1.90;100.00;100118.13;10397631;28;20113;-78
2022/01/24 20:38:00;;;;;;;14.38;9.10;;;;;;;1.72;100.00;100126.88;10437207;28;20125;-78
2022/01/24 20:43:05;;;;;;;18.02;12.35;;;;;;;1.57;100.00;100131.72;10418475;28;20048;-77
2022/01/24 20:48:07;;;;;;;17.90;10.93;;;;;;;1.37;100.00;100129.25;10415293;28;20072;-79
2022/01/24 20:53:08;;;;;;;15.80;9.73;;;;;;;1.17;100.00;100124.13;10416175;28;20143;-78
2022/01/24 20:58:08;;;;;;;14.90;9.77;;;;;;;0.97;100.00;100129.56;10409380;28;20053;-78
2022/01/24 21:03:11;;;;;;;18.52;10.25;;;;;;;0.80;100.00;100137.19;10391479;28;20045;-84
2022/01/24 21:08:14;;;;;;;21.03;10.60;;;;;;;0.62;100.00;100144.22;10389337;28;20053;-78
2022/01/24 21:13:27;;;;;;;15.98;9.48;;;;;;;0.44;100.00;100147.56;10407039;28;20057;-77
2022/01/24 21:18:29;;;;;;;15.88;9.48;;;;;;;0.19;100.00;100148.31;10418046;28;20050;-77
2022/01/24 21:23:30;;;;;;;17.38;10.35;;;;;;;0.02;100.00;100147.13;10407624;28;20061;-78
2022/01/24 21:28:31;;;;;;;17.23;10.30;;;;;;;-0.10;100.00;100138.22;10375446;28;20156;-78
2022/01/24 21:33:41;;;;;;;13.70;9.02;;;;;;;-0.23;100.00;100143.53;10407086;28;20053;-79
2022/01/24 21:38:42;;;;;;;15.60;9.90;;;;;;;-0.38;100.00;100138.47;10399940;28;20072;-80
2022/01/24 21:43:42;;;;;;;15.73;10.10;;;;;;;-0.48;100.00;100151.28;10399847;28;20057;-78
2022/01/24 21:48:45;;;;;;;13.05;8.38;;;;;;;-0.65;100.00;100142.97;10423253;28;20074;-79
2022/01/24 21:53:47;;;;;;;14.18;8.25;;;;;;;-0.71;100.00;100144.63;10405571;28;20057;-77
2022/01/24 21:58:50;;;;;;;12.55;8.10;;;;;;;-0.67;100.00;100152.91;10409140;28;20109;-78
2022/01/24 22:03:55;;;;;;;14.18;7.75;;;;;;;-0.47;100.00;100151.06;10412905;28;20056;-80
2022/01/24 22:08:57;;;;;;;13.35;7.57;;;;;;;-0.21;100.00;100152.06;10437374;28;20053;-77
2022/01/24 22:13:58;;;;;;;13.50;7.90;;;;;;;-0.09;100.00;100151.22;10421618;28;20411;-78
2022/01/24 22:18:59;;;;;;;13.18;8.07;;;;;;;-0.15;100.00;100149.41;10383382;28;20061;-79
2022/01/24 22:24:01;;;;;;;12.82;7.93;;;;;;;-0.08;100.00;100146.75;10385976;28;20052;-80
2022/01/24 22:29:04;;;;;;;15.80;8.40;;;;;;;-0.02;100.00;100146.72;10393339;28;20069;-77
2022/01/24 22:34:05;;;;;;;13.25;8.35;;;;;;;0.10;100.00;100143.47;10366837;28;20042;-79
2022/01/24 22:39:05;;;;;;;14.75;8.30;;;;;;;0.21;100.00;100140.16;10395233;28;20103;-77
2022/01/24 22:44:06;;;;;;;15.02;9.27;;;;;;;0.27;100.00;100145.44;10396575;28;20576;-77
2022/01/24 22:49:07;;;;;;;15.90;9.73;;;;;;;0.25;100.00;100131.59;10368745;28;20061;-77
2022/01/24 22:54:08;;;;;;;15.68;9.48;;;;;;;0.36;100.00;100134.59;10371458;28;20111;-78
2022/01/24 22:59:09;;;;;;;15.27;9.50;;;;;;;0.43;100.00;100138.03;10388336;28;20461;-78
2022/01/24 23:04:11;;;;;;;15.15;9.27;;;;;;;0.50;100.00;100134.34;10391589;28;20119;-78
2022/01/24 23:09:12;;;;;;;18.67;10.00;;;;;;;0.43;100.00;100138.81;10392233;28;20064;-76
2022/01/24 23:19:32;;;;;;;18.52;11.75;;;;;;;0.59;100.00;100136.72;10425879;28;20049;-77
2022/01/24 23:24:39;;;;;;;21.30;12.07;;;;;;;0.43;100.00;100127.47;10408374;28;20049;-78
2022/01/24 23:29:41;;;;;;;17.92;11.30;;;;;;;0.31;100.00;100131.78;10389327;28;20048;-77
2022/01/24 23:39:49;;;;;;;17.23;10.07;;;;;;;-0.37;100.00;100121.63;10406520;28;20053;-78
2022/01/24 23:44:50;;;;;;;19.17;9.37;;;;;;;-0.50;100.00;100122.47;10401668;28;20049;-77
2022/01/24 23:49:50;;;;;;;18.17;9.52;;;;;;;-0.71;100.00;100125.34;10410163;28;20207;-75
2022/01/24 23:54:51;;;;;;;14.50;8.95;;;;;;;-0.90;100.00;100122.53;10402974;28;20676;-77
